Time;durP1;ratioP1;P1;durP2;ratioP2;P2;SDS_P1;SDS_P2;PMS_P1;PMS_P2;Temp;Humidity;BMP_temperature;BMP_pressure;BME280_temperature;BME280_humidity;BME280_pressure;Samples;Min_cycle;Max_cycle;Signal;HPM_P1;HPM_P2
2021/09/11 04:59:50;;;;;;;24.35;12.88;;;;;;;;;;5194103;23;20137;-83
2021/09/11 05:02:16;;;;;;;18.98;11.75;;;;;;;;;;4975696;28;20050;-84
2021/09/11 05:04:42;;;;;;;23.20;13.40;;;;;;;;;;4960661;28;20081;-85
2021/09/11 05:07:09;;;;;;;24.52;12.52;;;;;;;;;;4976467;28;20065;-85
2021/09/11 05:09:35;;;;;;;24.10;12.83;;;;;;;;;;4954115;28;20031;-86
2021/09/11 05:12:04;;;;;;;22.87;12.97;;;;;;;;;;4954144;28;20047;-85
2021/09/11 06:01:44;;;;;;;29.80;16.27;;;;;;;;;;4947320;29;20050;-87
2021/09/11 06:05:12;;;;;;;29.55;15.70;;;;;;;;;;4936659;29;20083;-86
2021/09/11 06:35:16;;;;;;;32.97;16.80;;;;;;;;;;4950627;29;20522;-87
2021/09/11 06:37:43;;;;;;;27.55;15.43;;;;;;;;;;4931142;29;20040;-88
2021/09/11 06:40:42;;;;;;;30.20;16.73;;;;;;;;;;4903597;29;20034;-87
2021/09/11 06:56:21;;;;;;;33.30;17.50;;;;;;;;;;4931394;29;20042;-86
2021/09/11 06:59:07;;;;;;;32.88;18.33;;;;;;;;;;4913503;29;20032;-86
2021/09/11 07:12:40;;;;;;;31.08;16.80;;;;;;;;;;4856817;29;20742;-85
2021/09/11 07:15:06;;;;;;;30.23;17.73;;;;;;;;;;4873820;28;20063;-84
2021/09/11 07:58:39;;;;;;;20.00;12.48;;;;;;;;;;4933062;28;20038;-90
2021/09/11 08:01:07;;;;;;;20.75;12.18;;;;;;;;;;4955635;28;20117;-87
2021/09/11 08:03:32;;;;;;;17.35;11.45;;;;;;;;;;4939131;29;20039;-85
2021/09/11 08:06:05;;;;;;;20.60;12.17;;;;;;;;;;4939837;29;20030;-86
2021/09/11 08:08:32;;;;;;;17.75;11.77;;;;;;;;;;4941406;28;20086;-87
2021/09/11 08:10:58;;;;;;;21.83;12.50;;;;;;;;;;4956194;29;20034;-86
2021/09/11 08:13:23;;;;;;;19.27;11.87;;;;;;;;;;4941915;29;20122;-86
2021/09/11 08:15:54;;;;;;;18.90;12.07;;;;;;;;;;4939653;29;20062;-87
2021/09/11 08:18:20;;;;;;;18.50;12.13;;;;;;;;;;4955444;28;20027;-86
2021/09/11 08:20:45;;;;;;;19.05;12.48;;;;;;;;;;4940166;29;20023;-85
2021/09/11 08:23:12;;;;;;;18.77;12.20;;;;;;;;;;4949525;28;20058;-86
2021/09/11 08:25:39;;;;;;;;;;;;;;;;;;4959637;28;20034;-85
2021/09/11 08:28:08;;;;;;;18.52;12.02;;;;;;;;;;4974967;28;19936;-86
2021/09/11 08:30:33;;;;;;;;;;;;;;;;;;4975313;28;20510;-85
2021/09/11 08:32:58;;;;;;;18.63;11.80;;;;;;;;;;4974124;28;19909;-87
2021/09/11 08:35:28;;;;;;;18.73;12.20;;;;;;;;;;4942799;28;20288;-86
2021/09/11 08:37:54;;;;;;;20.90;12.90;;;;;;;;;;4957956;28;20105;-86
2021/09/11 08:40:21;;;;;;;19.63;11.38;;;;;;;;;;4974763;28;20030;-86
2021/09/11 08:42:48;;;;;;;19.33;11.77;;;;;;;;;;4957468;28;20434;-86
2021/09/11 08:45:14;;;;;;;19.95;12.30;;;;;;;;;;4958588;28;20033;-87
2021/09/11 08:47:53;;;;;;;;;;;;;;;;;;4943085;28;20066;-85
2021/09/11 08:50:18;;;;;;;;;;;;;;;;;;4974584;28;19910;-84
2021/09/11 08:52:59;;;;;;;21.58;12.40;;;;;;;;;;4974407;28;19917;-86
2021/09/11 08:55:25;;;;;;;22.40;12.65;;;;;;;;;;4974285;28;20412;-86
2021/09/11 08:58:05;;;;;;;22.88;12.73;;;;;;;;;;4958095;28;20058;-86
2021/09/11 09:00:58;;;;;;;19.30;12.32;;;;;;;;;;4974401;28;20038;-86
2021/09/11 09:03:54;;;;;;;21.02;12.40;;;;;;;;;;4940070;28;20090;-87
2021/09/11 09:06:28;;;;;;;21.80;11.75;;;;;;;;;;4974092;28;20483;-85
2021/09/11 12:13:52;;;;;;;12.88;6.38;;;;;;;;;;4976973;28;20269;-89
2021/09/11 13:36:52;;;;;;;15.50;7.78;;;;;;;;;;4955474;28;20098;-85
2021/09/11 13:39:17;;;;;;;12.85;7.18;;;;;;;;;;4956465;28;20026;-83
2021/09/11 13:41:42;;;;;;;16.37;7.57;;;;;;;;;;4973219;28;20069;-83
2021/09/11 13:44:08;;;;;;;17.33;7.70;;;;;;;;;;4956558;28;20114;-82
2021/09/11 13:46:36;;;;;;;12.50;7.47;;;;;;;;;;4972746;28;20047;-83
2021/09/11 13:49:01;;;;;;;13.45;7.28;;;;;;;;;;4972993;28;20023;-83
2021/09/11 13:51:27;;;;;;;12.27;7.10;;;;;;;;;;4989367;28;20041;-83
2021/09/11 13:53:52;;;;;;;11.40;6.77;;;;;;;;;;4972832;28;20033;-83
2021/09/11 13:56:18;;;;;;;11.13;6.57;;;;;;;;;;4956667;28;20039;-83
2021/09/11 13:58:43;;;;;;;11.00;6.47;;;;;;;;;;4956522;28;20488;-83
2021/09/11 14:01:08;;;;;;;11.87;6.40;;;;;;;;;;4964174;28;20282;-84
2021/09/11 14:03:34;;;;;;;11.53;6.80;;;;;;;;;;4940438;28;20078;-83
2021/09/11 14:05:59;;;;;;;11.63;7.50;;;;;;;;;;4940225;28;20042;-83
2021/09/11 14:08:25;;;;;;;12.73;7.50;;;;;;;;;;4939956;28;20524;-83
2021/09/11 14:25:14;;;;;;;14.55;8.40;;;;;;;;;;4973507;28;20094;-87
2021/09/11 14:28:22;;;;;;;13.07;8.05;;;;;;;;;;4973683;28;20030;-86
2021/09/11 14:44:34;;;;;;;15.00;8.15;;;;;;;;;;4950956;28;20050;-85
2021/09/11 14:47:00;;;;;;;14.67;8.83;;;;;;;;;;4934130;29;20114;-85
2021/09/11 14:50:16;;;;;;;13.55;8.30;;;;;;;;;;4936390;28;20102;-85
2021/09/11 14:53:05;;;;;;;13.95;8.43;;;;;;;;;;4986291;28;20377;-85
2021/09/11 14:56:27;;;;;;;15.90;9.75;;;;;;;;;;4930552;28;20094;-85
2021/09/11 14:59:05;;;;;;;15.25;9.10;;;;;;;;;;4966259;28;20035;-88
2021/09/11 15:01:35;;;;;;;14.30;8.75;;;;;;;;;;4971070;28;20461;-84
2021/09/11 15:04:03;;;;;;;13.57;8.40;;;;;;;;;;4985277;28;20039;-85
2021/09/11 15:06:52;;;;;;;14.88;9.70;;;;;;;;;;4961741;28;20043;-85
2021/09/11 15:09:22;;;;;;;14.80;9.13;;;;;;;;;;4968828;28;20045;-85
2021/09/11 15:11:48;;;;;;;14.07;9.20;;;;;;;;;;4969387;28;20038;-85
2021/09/11 15:14:14;;;;;;;;;;;;;;;;;;4970410;28;20122;-85
2021/09/11 15:16:39;;;;;;;14.10;8.43;;;;;;;;;;4952423;28;20406;-87
2021/09/11 15:19:05;;;;;;;13.80;8.33;;;;;;;;;;4970231;28;20026;-86
2021/09/11 15:21:30;;;;;;;14.57;8.90;;;;;;;;;;4969262;28;20169;-88
2021/09/11 15:23:55;;;;;;;14.07;8.53;;;;;;;;;;4969971;28;20523;-87
2021/09/11 15:26:21;;;;;;;15.47;8.77;;;;;;;;;;4969553;28;20141;-87
2021/09/11 15:28:46;;;;;;;13.17;8.40;;;;;;;;;;4969028;28;20030;-85
2021/09/11 15:31:11;;;;;;;14.37;8.80;;;;;;;;;;4969901;28;20030;-87
2021/09/11 15:33:37;;;;;;;14.00;9.03;;;;;;;;;;4969386;28;20031;-86
2021/09/11 15:36:05;;;;;;;16.17;8.90;;;;;;;;;;4954001;28;20625;-87
2021/09/11 15:38:30;;;;;;;15.10;8.85;;;;;;;;;;4949986;28;20039;-87
2021/09/11 15:40:57;;;;;;;15.07;8.83;;;;;;;;;;4970166;28;20030;-86
2021/09/11 15:43:22;;;;;;;13.90;8.88;;;;;;;;;;4950293;28;20034;-86
2021/09/11 15:45:48;;;;;;;14.73;9.10;;;;;;;;;;4952827;28;20471;-86
2021/09/11 15:48:13;;;;;;;14.47;9.20;;;;;;;;;;4969553;28;20029;-86
2021/09/11 15:50:38;;;;;;;14.70;9.60;;;;;;;;;;4953452;28;20123;-86
2021/09/11 15:53:04;;;;;;;14.57;9.30;;;;;;;;;;4950492;28;20457;-86
2021/09/11 15:55:29;;;;;;;14.70;9.67;;;;;;;;;;4969828;28;20170;-86
2021/09/11 15:57:54;;;;;;;15.07;9.13;;;;;;;;;;4968126;28;20648;-86
2021/09/11 16:00:22;;;;;;;14.67;9.57;;;;;;;;;;4973053;28;20113;-85
2021/09/11 16:02:47;;;;;;;15.55;9.43;;;;;;;;;;4970432;28;20022;-86
2021/09/11 16:05:16;;;;;;;15.07;8.87;;;;;;;;;;4969458;28;20049;-86
2021/09/11 16:07:43;;;;;;;15.85;9.70;;;;;;;;;;4951612;28;20280;-86
2021/09/11 16:10:09;;;;;;;13.95;8.85;;;;;;;;;;4969569;28;20019;-86
2021/09/11 16:12:34;;;;;;;15.52;9.27;;;;;;;;;;4964678;28;20022;-86
2021/09/11 16:15:00;;;;;;;15.77;8.87;;;;;;;;;;4972739;28;20053;-86
2021/09/11 16:17:25;;;;;;;15.00;9.37;;;;;;;;;;4941107;28;20130;-85
2021/09/11 16:19:51;;;;;;;15.50;9.10;;;;;;;;;;4969744;28;20126;-86
2021/09/11 16:22:16;;;;;;;14.77;9.47;;;;;;;;;;4973211;28;20122;-87
2021/09/11 16:24:41;;;;;;;13.33;9.13;;;;;;;;;;4973155;28;20101;-85
2021/09/11 16:27:07;;;;;;;15.60;9.37;;;;;;;;;;4965697;28;20131;-87
2021/09/11 16:29:32;;;;;;;16.17;10.60;;;;;;;;;;4961396;28;20113;-86
2021/09/11 16:31:57;;;;;;;16.10;10.13;;;;;;;;;;4972430;28;20077;-86
2021/09/11 17:41:55;;;;;;;22.02;12.95;;;;;;;;;;4973757;28;20137;-88
2021/09/11 17:44:44;;;;;;;28.08;15.25;;;;;;;;;;4955896;28;20093;-86
2021/09/11 17:50:35;;;;;;;23.98;12.75;;;;;;;;;;4933186;29;20046;-87
2021/09/11 17:53:00;;;;;;;21.23;12.57;;;;;;;;;;4933274;28;20407;-82
2021/09/11 17:55:26;;;;;;;24.77;13.00;;;;;;;;;;4956488;28;20534;-85
2021/09/11 17:57:54;;;;;;;22.27;12.80;;;;;;;;;;4956696;28;20043;-83
2021/09/11 18:00:19;;;;;;;20.65;12.75;;;;;;;;;;4972891;28;20077;-82
2021/09/11 18:02:45;;;;;;;19.63;11.63;;;;;;;;;;4956339;28;20125;-82
2021/09/11 18:05:11;;;;;;;22.23;13.43;;;;;;;;;;4956413;28;20029;-82
2021/09/11 18:07:36;;;;;;;26.47;14.47;;;;;;;;;;4956431;28;20122;-82
2021/09/11 18:10:02;;;;;;;23.33;13.80;;;;;;;;;;4956331;28;20113;-81
2021/09/11 18:12:27;;;;;;;21.30;12.17;;;;;;;;;;4972375;28;20069;-81
2021/09/11 18:14:53;;;;;;;23.07;12.90;;;;;;;;;;4956257;28;20451;-81
2021/09/11 18:17:18;;;;;;;23.30;13.37;;;;;;;;;;4940783;28;20047;-82
2021/09/11 18:19:44;;;;;;;24.33;12.90;;;;;;;;;;4934898;29;20073;-81
2021/09/11 18:22:09;;;;;;;21.57;13.10;;;;;;;;;;4937274;29;20466;-82
2021/09/11 18:24:34;;;;;;;24.67;13.80;;;;;;;;;;4936629;29;20150;-81
2021/09/11 18:27:00;;;;;;;25.03;13.83;;;;;;;;;;4936330;29;20024;-82
2021/09/11 18:29:25;;;;;;;22.97;13.60;;;;;;;;;;4960959;28;20031;-82
2021/09/11 18:31:51;;;;;;;21.87;12.67;;;;;;;;;;4952461;29;20047;-81
2021/09/11 18:34:16;;;;;;;24.20;12.23;;;;;;;;;;4935689;29;20038;-82
2021/09/11 18:36:41;;;;;;;59.77;12.83;;;;;;;;;;4936126;29;20540;-82
2021/09/11 18:39:07;;;;;;;22.40;12.53;;;;;;;;;;4952108;28;20027;-81
2021/09/11 18:41:33;;;;;;;22.60;12.57;;;;;;;;;;4951966;29;20054;-81
2021/09/11 18:43:58;;;;;;;23.30;13.10;;;;;;;;;;4952580;28;20052;-81
2021/09/11 18:46:24;;;;;;;21.40;12.20;;;;;;;;;;4943163;28;20057;-81
2021/09/11 18:48:49;;;;;;;24.13;12.63;;;;;;;;;;4955328;28;20018;-81
2021/09/11 18:51:14;;;;;;;28.77;14.33;;;;;;;;;;4955132;28;20173;-82
2021/09/11 18:53:39;;;;;;;26.30;14.20;;;;;;;;;;4970839;28;20821;-81
2021/09/11 18:56:05;;;;;;;26.03;14.13;;;;;;;;;;4971242;28;20050;-82
2021/09/11 18:58:30;;;;;;;19.43;11.63;;;;;;;;;;4971115;28;20150;-81
2021/09/11 19:00:56;;;;;;;19.37;11.00;;;;;;;;;;4971392;28;20069;-82
2021/09/11 19:03:21;;;;;;;26.53;12.80;;;;;;;;;;4970992;28;20123;-82
2021/09/11 19:05:48;;;;;;;22.97;12.80;;;;;;;;;;4971357;28;20031;-82
2021/09/11 19:08:13;;;;;;;25.05;13.15;;;;;;;;;;4971221;28;20125;-81
2021/09/11 19:10:38;;;;;;;27.03;13.53;;;;;;;;;;4971047;28;20670;-81
2021/09/11 19:13:10;;;;;;;25.97;13.50;;;;;;;;;;4971150;28;20106;-81
2021/09/11 19:15:36;;;;;;;24.25;12.02;;;;;;;;;;4951217;28;20045;-82
2021/09/11 19:18:01;;;;;;;25.75;13.23;;;;;;;;;;4963952;28;20026;-82
2021/09/11 19:20:27;;;;;;;23.70;12.00;;;;;;;;;;4970946;28;20037;-82
2021/09/11 19:22:52;;;;;;;18.47;11.17;;;;;;;;;;4970804;28;20467;-82
2021/09/11 19:25:17;;;;;;;25.27;11.93;;;;;;;;;;4970929;28;20061;-81
2021/09/11 19:27:43;;;;;;;24.00;11.80;;;;;;;;;;4970527;28;20121;-81
2021/09/11 19:30:09;;;;;;;26.20;12.73;;;;;;;;;;4961290;28;20023;-81
2021/09/11 19:32:34;;;;;;;21.87;11.63;;;;;;;;;;4954546;28;20186;-81
2021/09/11 19:34:59;;;;;;;20.47;10.70;;;;;;;;;;4954934;28;20121;-82
2021/09/11 19:37:25;;;;;;;20.60;11.17;;;;;;;;;;4954832;28;20138;-81
2021/09/11 19:39:50;;;;;;;23.87;11.50;;;;;;;;;;4961328;28;20550;-82
2021/09/11 19:42:15;;;;;;;32.20;10.73;;;;;;;;;;4954766;28;20182;-83
2021/09/11 19:44:41;;;;;;;19.43;9.97;;;;;;;;;;4952958;28;20288;-81
2021/09/11 19:47:06;;;;;;;22.93;10.90;;;;;;;;;;4958061;28;20120;-81
2021/09/11 19:49:31;;;;;;;90.10;12.43;;;;;;;;;;4958440;28;20039;-81
2021/09/11 19:51:57;;;;;;;32.23;12.20;;;;;;;;;;4958732;28;20378;-81
2021/09/11 19:54:23;;;;;;;32.43;11.00;;;;;;;;;;4974211;28;20030;-82
2021/09/11 19:56:49;;;;;;;67.90;11.57;;;;;;;;;;4974590;28;20065;-81
2021/09/11 19:59:14;;;;;;;70.85;11.57;;;;;;;;;;4973978;28;20301;-81
2021/09/11 20:01:41;;;;;;;35.00;11.07;;;;;;;;;;4958389;28;20554;-82
2021/09/11 20:04:07;;;;;;;122.15;11.50;;;;;;;;;;4958302;28;20019;-82
2021/09/11 20:06:32;;;;;;;31.27;12.23;;;;;;;;;;4958144;28;20033;-82
2021/09/11 20:08:57;;;;;;;42.47;13.20;;;;;;;;;;4974248;28;20026;-82
2021/09/11 20:11:23;;;;;;;71.03;13.23;;;;;;;;;;4958400;28;20106;-83
2021/09/11 20:13:48;;;;;;;76.97;12.40;;;;;;;;;;4957816;28;20033;-82
2021/09/11 20:16:13;;;;;;;57.13;12.70;;;;;;;;;;4957870;28;20125;-82
2021/09/11 20:18:39;;;;;;;42.50;11.93;;;;;;;;;;4974349;28;20507;-81
2021/09/11 20:21:04;;;;;;;37.13;10.07;;;;;;;;;;4957914;28;20113;-81
2021/09/11 20:23:29;;;;;;;66.13;10.20;;;;;;;;;;4973828;28;20054;-82
2021/09/11 20:25:55;;;;;;;65.83;10.17;;;;;;;;;;4958169;28;20033;-82
2021/09/11 20:28:20;;;;;;;54.03;11.90;;;;;;;;;;4957650;28;20174;-82
2021/09/11 20:30:47;;;;;;;50.20;11.23;;;;;;;;;;4957830;28;20034;-81
2021/09/11 20:33:13;;;;;;;64.03;12.70;;;;;;;;;;4957483;28;20043;-82
2021/09/11 20:35:38;;;;;;;40.55;12.65;;;;;;;;;;4957556;28;20027;-82
2021/09/11 20:38:03;;;;;;;46.50;11.33;;;;;;;;;;4941724;28;20130;-81
2021/09/11 20:40:29;;;;;;;68.10;10.97;;;;;;;;;;4957449;28;20058;-82
2021/09/11 20:42:54;;;;;;;72.53;11.57;;;;;;;;;;4973652;28;20676;-82
2021/09/11 20:45:20;;;;;;;42.30;10.83;;;;;;;;;;4952631;28;20086;-81
2021/09/11 20:47:45;;;;;;;51.63;11.43;;;;;;;;;;4938512;29;20114;-82
2021/09/11 20:50:11;;;;;;;71.70;13.03;;;;;;;;;;4938546;29;20548;-82
2021/09/11 20:52:36;;;;;;;30.83;13.07;;;;;;;;;;4951588;29;20035;-82
2021/09/11 20:55:01;;;;;;;53.33;13.00;;;;;;;;;;4954210;29;20110;-82
2021/09/11 20:57:27;;;;;;;42.80;12.77;;;;;;;;;;4937726;29;20063;-82
2021/09/11 20:59:52;;;;;;;35.00;11.17;;;;;;;;;;4957134;28;20038;-81
2021/09/11 21:02:17;;;;;;;29.07;10.97;;;;;;;;;;4956981;28;20133;-82
2021/09/11 21:04:43;;;;;;;40.07;11.83;;;;;;;;;;4973515;28;20019;-82
2021/09/11 21:07:09;;;;;;;21.37;11.43;;;;;;;;;;4973136;28;20389;-82
2021/09/11 21:09:35;;;;;;;24.10;11.30;;;;;;;;;;4941011;28;20023;-82
2021/09/11 21:12:01;;;;;;;54.63;11.88;;;;;;;;;;4972849;28;20560;-81
2021/09/11 21:14:26;;;;;;;56.50;12.67;;;;;;;;;;4956500;28;20035;-82
2021/09/11 21:16:51;;;;;;;37.80;13.27;;;;;;;;;;4941416;28;20134;-82
2021/09/11 21:19:17;;;;;;;35.83;12.30;;;;;;;;;;4937845;29;20035;-81
2021/09/11 21:21:42;;;;;;;25.60;11.33;;;;;;;;;;4938060;29;20037;-81
2021/09/11 21:24:10;;;;;;;34.47;12.33;;;;;;;;;;4937413;29;20606;-82
2021/09/11 21:26:37;;;;;;;48.10;13.25;;;;;;;;;;4956373;28;20034;-82
2021/09/11 21:29:02;;;;;;;28.25;12.70;;;;;;;;;;4956720;28;20496;-81
2021/09/11 21:31:27;;;;;;;36.47;10.43;;;;;;;;;;4956763;28;20066;-80
2021/09/11 21:33:53;;;;;;;52.43;11.97;;;;;;;;;;4972643;28;20563;-82
2021/09/11 21:36:18;;;;;;;33.33;11.33;;;;;;;;;;4973097;28;20069;-82
2021/09/11 21:38:43;;;;;;;24.03;11.50;;;;;;;;;;4956743;28;20027;-83
2021/09/11 21:41:09;;;;;;;34.60;11.53;;;;;;;;;;4956748;28;20563;-82
2021/09/11 21:43:34;;;;;;;24.57;10.93;;;;;;;;;;4954396;28;20036;-82
2021/09/11 21:46:00;;;;;;;22.50;11.47;;;;;;;;;;4956669;28;20070;-81
2021/09/11 21:48:25;;;;;;;20.90;11.07;;;;;;;;;;4956660;28;20027;-81
2021/09/11 21:50:50;;;;;;;23.30;10.70;;;;;;;;;;4941030;29;20110;-82
2021/09/11 21:53:16;;;;;;;24.87;10.83;;;;;;;;;;4937124;29;20697;-82
2021/09/11 21:55:42;;;;;;;20.93;11.10;;;;;;;;;;4937364;29;20283;-81
2021/09/11 21:58:08;;;;;;;20.50;10.63;;;;;;;;;;4936820;28;20416;-82
